createdAt,value
2018-02-19T00:01:20.056Z,0.90
2018-02-19T00:03:48.370Z,0.90
2018-02-19T00:06:17.440Z,0.90
2018-02-19T00:08:45.751Z,0.90
2018-02-19T00:11:14.049Z,0.90
2018-02-19T00:13:42.347Z,0.90
2018-02-19T00:16:10.684Z,0.90
2018-02-19T00:18:39.759Z,0.90
2018-02-19T00:21:08.817Z,0.90
2018-02-19T00:23:37.121Z,0.90
2018-02-19T00:26:05.424Z,0.80
2018-02-19T00:28:33.727Z,0.70
2018-02-19T00:31:02.810Z,0.80
2018-02-19T00:33:31.122Z,0.80
2018-02-19T00:36:00.198Z,0.80
2018-02-19T00:38:28.518Z,0.80
2018-02-19T00:40:56.826Z,0.80
2018-02-19T00:43:24.782Z,0.80
2018-02-19T00:45:53.079Z,0.90
2018-02-19T00:48:21.155Z,0.90
2018-02-19T00:50:49.442Z,0.90
2018-02-19T00:53:17.730Z,1.00
2018-02-19T00:55:46.090Z,1.00
2018-02-19T00:58:14.388Z,1.00
2018-02-19T01:00:42.687Z,0.90
2018-02-19T01:03:10.991Z,0.90
2018-02-19T01:05:39.297Z,0.90
2018-02-19T01:08:07.572Z,0.90
2018-02-19T01:10:35.898Z,1.00
2018-02-19T01:13:04.190Z,0.90
2018-02-19T01:15:32.485Z,1.00
2018-02-19T01:18:00.798Z,1.00
2018-02-19T01:20:29.878Z,1.00
2018-02-19T01:22:58.178Z,1.00
2018-02-19T01:25:26.481Z,1.00
2018-02-19T01:27:54.787Z,1.00
2018-02-19T01:30:23.096Z,1.00
2018-02-19T01:32:51.388Z,1.00
2018-02-19T01:35:19.698Z,1.00
2018-02-19T01:37:47.994Z,1.00
2018-02-19T01:40:16.307Z,1.00
2018-02-19T01:42:44.603Z,1.00
2018-02-19T01:45:12.897Z,1.00
2018-02-19T01:47:41.210Z,1.00
2018-02-19T01:50:15.833Z,1.00
2018-02-19T01:52:43.826Z,1.00
2018-02-19T01:55:12.127Z,1.10
2018-02-19T01:57:40.433Z,1.10
2018-02-19T02:00:08.423Z,1.10
2018-02-19T02:02:36.780Z,1.20
2018-02-19T02:05:05.244Z,1.20
2018-02-19T02:07:33.569Z,1.10
2018-02-19T02:10:01.861Z,1.20
2018-02-19T02:12:30.158Z,1.20
2018-02-19T02:14:58.464Z,1.20
2018-02-19T02:17:26.758Z,1.20
2018-02-19T02:19:55.494Z,1.20
2018-02-19T02:22:24.552Z,1.20
2018-02-19T02:24:52.861Z,1.20
2018-02-19T02:27:21.141Z,1.30
2018-02-19T02:29:49.448Z,1.30
2018-02-19T02:32:17.750Z,1.30
2018-02-19T02:34:46.041Z,1.30
2018-02-19T02:37:14.362Z,1.40
2018-02-19T02:39:42.663Z,1.40
2018-02-19T02:42:11.417Z,1.40
2018-02-19T02:44:40.472Z,1.40
2018-02-19T02:47:08.792Z,1.40
2018-02-19T02:49:37.091Z,1.50
2018-02-19T02:52:05.402Z,1.50
2018-02-19T02:54:33.882Z,1.50
2018-02-19T02:57:02.924Z,1.50
2018-02-19T02:59:31.238Z,1.50
2018-02-19T03:01:59.539Z,1.50
2018-02-19T03:04:27.833Z,1.50
2018-02-19T03:06:56.151Z,1.50
2018-02-19T03:09:24.446Z,1.50
2018-02-19T03:11:52.742Z,1.50
2018-02-19T03:14:21.046Z,1.50
2018-02-19T03:16:49.358Z,1.40
2018-02-19T03:19:17.669Z,1.40
2018-02-19T03:21:45.705Z,1.50
2018-02-19T03:24:14.034Z,1.50
2018-02-19T03:26:42.310Z,1.50
2018-02-19T03:29:10.606Z,1.50
2018-02-19T03:31:38.894Z,1.50
2018-02-19T03:34:07.195Z,1.50
2018-02-19T03:36:35.485Z,1.60
2018-02-19T03:39:03.025Z,1.50
2018-02-19T03:41:31.317Z,1.60
2018-02-19T03:43:59.632Z,1.50
2018-02-19T03:46:27.900Z,1.60
2018-02-19T03:48:56.203Z,1.60
2018-02-19T03:51:24.498Z,1.60
2018-02-19T03:53:52.800Z,1.60
2018-02-19T03:56:21.101Z,1.60
2018-02-19T03:58:49.406Z,1.60
2018-02-19T04:01:17.687Z,1.50
2018-02-19T04:03:45.975Z,1.50
2018-02-19T04:06:14.255Z,1.50
2018-02-19T04:08:42.536Z,1.50
2018-02-19T04:11:10.809Z,1.50
2018-02-19T04:13:39.098Z,1.50
2018-02-19T04:16:07.406Z,1.50
2018-02-19T04:18:35.701Z,1.50
2018-02-19T04:21:04.000Z,1.50
2018-02-19T04:23:32.296Z,1.50
2018-02-19T04:26:00.586Z,1.50
2018-02-19T04:28:29.634Z,1.50
2018-02-19T04:30:57.937Z,1.50
2018-02-19T04:33:26.244Z,1.50
2018-02-19T04:35:54.538Z,1.50
2018-02-19T04:38:22.826Z,1.50
2018-02-19T04:40:51.114Z,1.50
2018-02-19T04:43:19.215Z,1.50
2018-02-19T04:45:58.015Z,1.50
2018-02-19T04:48:26.121Z,1.50
2018-02-19T04:50:54.415Z,1.50
2018-02-19T04:53:22.707Z,1.50
2018-02-19T04:55:50.804Z,1.50
2018-02-19T04:58:19.084Z,1.50
2018-02-19T05:00:47.402Z,1.50
2018-02-19T05:03:15.669Z,1.50
2018-02-19T05:05:44.727Z,1.50
2018-02-19T05:08:13.021Z,1.50
2018-02-19T05:10:41.338Z,1.50
2018-02-19T05:13:09.277Z,1.50
2018-02-19T05:15:37.561Z,1.50
2018-02-19T05:18:05.874Z,1.40
2018-02-19T05:20:34.149Z,1.40
2018-02-19T05:23:03.201Z,1.40
2018-02-19T05:25:31.477Z,1.40
2018-02-19T05:27:59.754Z,1.40
2018-02-19T05:30:28.047Z,1.40
2018-02-19T05:32:56.344Z,1.40
2018-02-19T05:35:24.627Z,1.40
2018-02-19T05:37:52.911Z,1.40
2018-02-19T05:40:21.204Z,1.40
2018-02-19T05:42:49.497Z,1.40
2018-02-19T05:45:17.787Z,1.40
2018-02-19T05:47:46.071Z,1.40
2018-02-19T05:50:14.342Z,1.40
2018-02-19T05:52:42.630Z,1.40
2018-02-19T05:55:10.894Z,1.40
2018-02-19T05:57:39.182Z,1.50
2018-02-19T06:00:07.461Z,1.40
2018-02-19T06:02:35.749Z,1.40
2018-02-19T06:05:03.850Z,1.40
2018-02-19T06:07:32.158Z,1.40
2018-02-19T06:10:00.454Z,1.40
2018-02-19T06:12:28.813Z,1.30
2018-02-19T06:14:57.230Z,1.40
2018-02-19T06:17:25.511Z,1.30
2018-02-19T06:19:54.577Z,1.30
2018-02-19T06:22:22.845Z,1.30
2018-02-19T06:24:51.116Z,1.30
2018-02-19T06:27:19.398Z,1.30
2018-02-19T06:29:47.674Z,1.30
2018-02-19T06:32:15.960Z,1.30
2018-02-19T06:34:44.239Z,1.30
2018-02-19T06:37:12.549Z,1.30
2018-02-19T06:39:40.812Z,1.30
2018-02-19T06:42:09.098Z,1.30
2018-02-19T06:44:37.412Z,1.30
2018-02-19T06:47:07.209Z,1.30
2018-02-19T06:49:35.496Z,1.30
2018-02-19T06:52:03.573Z,1.30
2018-02-19T06:54:31.856Z,1.30
2018-02-19T06:57:00.135Z,1.30
2018-02-19T06:59:28.409Z,1.30
2018-02-19T07:01:56.707Z,1.40
2018-02-19T07:04:25.016Z,1.30
2018-02-19T07:06:54.063Z,1.30
2018-02-19T07:09:22.350Z,1.30
2018-02-19T07:11:50.653Z,1.30
2018-02-19T07:14:18.929Z,1.30
2018-02-19T07:16:47.207Z,1.30
2018-02-19T07:19:15.488Z,1.30
2018-02-19T07:21:43.754Z,1.40
2018-02-19T07:24:12.031Z,1.40
2018-02-19T07:26:40.318Z,1.40
2018-02-19T07:29:08.622Z,1.40
2018-02-19T07:31:36.891Z,1.40
2018-02-19T07:34:05.184Z,1.50
2018-02-19T07:36:33.478Z,1.50
2018-02-19T07:39:01.746Z,1.50
2018-02-19T07:41:30.042Z,1.60
2018-02-19T07:43:58.346Z,1.60
2018-02-19T07:46:26.627Z,1.60
2018-02-19T07:48:54.906Z,1.60
2018-02-19T07:51:23.029Z,1.70
2018-02-19T07:53:51.313Z,1.70
2018-02-19T07:56:19.590Z,1.70
2018-02-19T07:58:47.872Z,1.70
2018-02-19T08:01:16.147Z,1.70
2018-02-19T08:03:44.438Z,1.70
2018-02-19T08:06:12.769Z,1.70
2018-02-19T08:08:41.821Z,1.70
2018-02-19T08:11:10.091Z,1.70
2018-02-19T08:13:38.381Z,1.70
2018-02-19T08:16:06.670Z,1.70
2018-02-19T08:18:34.954Z,1.70
2018-02-19T08:21:03.247Z,1.70
2018-02-19T08:23:31.523Z,1.80
2018-02-19T08:25:59.999Z,1.80
2018-02-19T08:28:28.270Z,1.80
2018-02-19T08:30:56.583Z,1.90
2018-02-19T08:33:25.439Z,1.90
2018-02-19T08:35:53.708Z,1.90
2018-02-19T08:38:21.999Z,1.80
2018-02-19T08:40:50.277Z,1.90
2018-02-19T08:43:18.546Z,1.90
2018-02-19T08:45:46.825Z,1.90
2018-02-19T08:48:15.137Z,1.80
2018-02-19T08:50:43.393Z,1.80
2018-02-19T08:53:11.670Z,1.80
2018-02-19T08:55:39.946Z,1.90
2018-02-19T08:58:08.218Z,1.80
2018-02-19T09:00:36.511Z,1.80
2018-02-19T09:03:04.771Z,1.90
2018-02-19T09:05:33.033Z,1.90
2018-02-19T09:08:01.307Z,1.90
2018-02-19T09:10:29.576Z,1.90
2018-02-19T09:12:57.662Z,1.90
2018-02-19T09:15:25.979Z,2.00
2018-02-19T09:17:54.413Z,2.00
2018-02-19T09:20:22.701Z,2.00
2018-02-19T09:22:51.017Z,2.00
2018-02-19T09:25:19.410Z,2.10
2018-02-19T09:27:47.712Z,2.10
2018-02-19T09:30:15.960Z,2.10
2018-02-19T09:32:44.244Z,2.10
2018-02-19T09:35:12.504Z,2.20
2018-02-19T09:37:40.800Z,2.20
2018-02-19T09:40:09.081Z,2.20
2018-02-19T09:42:37.368Z,2.20
2018-02-19T09:45:05.626Z,2.20
2018-02-19T09:47:33.918Z,2.20
2018-02-19T09:50:02.170Z,2.30
2018-02-19T09:52:30.448Z,2.30
2018-02-19T09:54:58.730Z,2.30
2018-02-19T09:57:27.005Z,2.20
2018-02-19T09:59:55.268Z,2.30
2018-02-19T10:02:23.548Z,2.30
2018-02-19T10:04:51.828Z,2.30
2018-02-19T10:07:20.102Z,2.30
2018-02-19T10:09:48.390Z,2.40
2018-02-19T10:12:16.653Z,2.40
2018-02-19T10:14:44.927Z,2.40
2018-02-19T10:17:13.197Z,2.40
2018-02-19T10:19:41.487Z,2.50
2018-02-19T10:22:09.767Z,2.40
2018-02-19T10:24:38.023Z,2.50
2018-02-19T10:27:06.302Z,2.40
2018-02-19T10:29:34.592Z,2.50
2018-02-19T10:32:02.881Z,2.40
2018-02-19T10:34:31.935Z,2.50
2018-02-19T10:37:00.207Z,2.50
2018-02-19T10:39:28.464Z,2.50
2018-02-19T10:41:56.749Z,2.50
2018-02-19T10:44:25.014Z,2.60
2018-02-19T10:46:53.289Z,2.50
2018-02-19T10:49:21.553Z,2.50
2018-02-19T10:51:49.837Z,2.50
2018-02-19T10:54:18.111Z,2.60
2018-02-19T10:56:46.369Z,2.60
2018-02-19T10:59:14.650Z,2.50
2018-02-19T11:01:42.930Z,2.50
2018-02-19T11:04:10.636Z,2.60
2018-02-19T11:06:39.686Z,2.60
2018-02-19T11:09:07.978Z,2.50
2018-02-19T11:11:36.241Z,2.60
2018-02-19T11:14:04.523Z,2.60
2018-02-19T11:16:32.786Z,2.70
2018-02-19T11:19:01.076Z,2.80
2018-02-19T11:21:29.369Z,2.70
2018-02-19T11:23:57.659Z,2.80
2018-02-19T11:26:25.948Z,2.80
2018-02-19T11:28:54.236Z,2.80
2018-02-19T11:31:22.511Z,2.70
2018-02-19T11:33:50.798Z,2.80
2018-02-19T11:36:20.569Z,2.70
2018-02-19T11:38:55.378Z,2.70
2018-02-19T11:41:17.325Z,2.80
2018-02-19T11:43:45.582Z,2.90
2018-02-19T11:46:13.862Z,2.90
2018-02-19T11:48:42.121Z,3.00
2018-02-19T11:51:10.398Z,3.00
2018-02-19T11:53:38.675Z,3.10
2018-02-19T11:56:06.954Z,3.10
2018-02-19T11:58:35.080Z,3.20
2018-02-19T12:01:03.386Z,3.20
2018-02-19T12:03:32.592Z,3.30
2018-02-19T12:06:00.917Z,3.20
2018-02-19T12:08:29.381Z,3.40
2018-02-19T12:10:57.667Z,3.50
2018-02-19T12:13:25.969Z,3.40
2018-02-19T12:15:54.250Z,3.50
2018-02-19T12:18:22.531Z,3.60
2018-02-19T12:20:50.798Z,3.70
2018-02-19T12:23:19.063Z,3.70
2018-02-19T12:25:47.338Z,3.70
2018-02-19T12:28:15.604Z,3.80
2018-02-19T12:30:43.866Z,3.80
2018-02-19T12:33:12.146Z,3.70
2018-02-19T12:35:41.196Z,3.70
2018-02-19T12:38:09.713Z,3.70
2018-02-19T12:40:37.963Z,3.70
2018-02-19T12:43:06.239Z,3.70
2018-02-19T12:45:34.501Z,3.80
2018-02-19T12:48:02.761Z,3.80
2018-02-19T12:50:31.646Z,3.70
2018-02-19T12:53:00.662Z,3.70
2018-02-19T12:55:28.933Z,3.70
2018-02-19T12:57:57.209Z,3.70
2018-02-19T13:00:25.505Z,3.70
2018-02-19T13:02:54.721Z,3.60
2018-02-19T13:05:22.985Z,3.60
2018-02-19T13:07:51.256Z,3.60
2018-02-19T13:10:19.518Z,3.70
2018-02-19T13:12:48.570Z,3.60
2018-02-19T13:15:16.830Z,3.60
2018-02-19T13:17:45.122Z,3.70
2018-02-19T13:20:13.387Z,3.60
2018-02-19T13:22:41.651Z,3.60
2018-02-19T13:25:09.916Z,3.60
2018-02-19T13:27:38.429Z,3.60
2018-02-19T13:30:06.704Z,3.50
2018-02-19T13:32:34.969Z,3.70
2018-02-19T13:35:03.254Z,3.70
2018-02-19T13:37:31.518Z,3.80
2018-02-19T13:39:59.833Z,3.90
2018-02-19T13:42:28.138Z,3.80
2018-02-19T13:44:56.407Z,3.80
2018-02-19T13:47:24.695Z,3.80
2018-02-19T13:49:53.914Z,3.70
2018-02-19T13:52:22.171Z,3.70
2018-02-19T13:54:50.513Z,3.70
2018-02-19T13:57:18.817Z,3.70
2018-02-19T13:59:47.129Z,3.80
2018-02-19T14:02:15.439Z,3.80
2018-02-19T14:04:43.848Z,3.80
2018-02-19T14:07:12.127Z,3.80
2018-02-19T14:09:40.404Z,3.80
2018-02-19T14:12:08.689Z,3.80
2018-02-19T14:14:36.967Z,3.80
2018-02-19T14:17:04.910Z,3.80
2018-02-19T14:19:33.978Z,3.80
2018-02-19T14:22:02.251Z,3.80
2018-02-19T14:24:30.521Z,3.80
2018-02-19T14:26:58.802Z,3.80
2018-02-19T14:29:27.842Z,3.90
2018-02-19T14:31:56.112Z,3.90
2018-02-19T14:34:24.374Z,3.90
2018-02-19T14:36:52.668Z,3.90
2018-02-19T14:39:21.049Z,3.80
2018-02-19T14:41:49.315Z,3.80
2018-02-19T14:44:17.619Z,3.70
2018-02-19T14:46:45.964Z,3.70
2018-02-19T14:49:14.372Z,3.70
2018-02-19T14:51:42.636Z,3.80
2018-02-19T14:54:11.677Z,3.70
2018-02-19T14:56:39.969Z,3.70
2018-02-19T14:59:08.233Z,3.80
2018-02-19T15:01:36.523Z,3.70
2018-02-19T15:04:04.792Z,3.70
2018-02-19T15:06:33.056Z,3.70
2018-02-19T15:09:01.318Z,3.80
2018-02-19T15:11:29.581Z,3.80
2018-02-19T15:13:57.851Z,3.70
2018-02-19T15:16:26.142Z,3.70
2018-02-19T15:18:54.424Z,3.70
2018-02-19T15:21:22.691Z,3.60
2018-02-19T15:23:50.991Z,3.60
2018-02-19T15:26:19.271Z,3.60
2018-02-19T15:28:47.546Z,3.60
2018-02-19T15:31:15.851Z,3.60
2018-02-19T15:33:44.313Z,3.50
2018-02-19T15:36:12.607Z,3.50
2018-02-19T15:38:40.906Z,3.50
2018-02-19T15:41:09.992Z,3.50
2018-02-19T15:43:38.283Z,3.50
2018-02-19T15:46:06.551Z,3.60
2018-02-19T15:48:34.856Z,3.50
2018-02-19T15:51:03.167Z,3.50
2018-02-19T15:53:31.489Z,3.50
2018-02-19T15:55:59.805Z,3.50
2018-02-19T15:58:28.102Z,3.50
2018-02-19T16:00:56.389Z,3.50
2018-02-19T16:03:24.697Z,3.50
2018-02-19T16:05:52.965Z,3.40
2018-02-19T16:08:21.246Z,3.40
2018-02-19T16:10:49.532Z,3.40
2018-02-19T16:13:17.858Z,3.40
2018-02-19T16:15:46.144Z,3.40
2018-02-19T16:18:14.553Z,3.40
2018-02-19T16:20:42.875Z,3.30
2018-02-19T16:23:11.175Z,3.30
2018-02-19T16:25:40.209Z,3.40
2018-02-19T16:28:08.637Z,3.30
2018-02-19T16:30:36.926Z,3.30
2018-02-19T16:33:05.244Z,3.30
2018-02-19T16:35:33.517Z,3.40
2018-02-19T16:38:02.553Z,3.40
2018-02-19T16:40:30.852Z,3.40
2018-02-19T16:42:59.117Z,3.40
2018-02-19T16:45:27.395Z,3.40
2018-02-19T16:47:55.670Z,3.40
2018-02-19T16:50:23.977Z,3.40
2018-02-19T16:52:52.455Z,3.40
2018-02-19T16:55:20.746Z,3.40
2018-02-19T16:57:49.018Z,3.40
2018-02-19T17:00:17.302Z,3.40
2018-02-19T17:02:45.606Z,3.30
2018-02-19T17:05:13.906Z,3.40
2018-02-19T17:07:42.186Z,3.30
2018-02-19T17:10:10.483Z,3.40
2018-02-19T17:12:38.766Z,3.30
2018-02-19T17:15:07.070Z,3.30
2018-02-19T17:17:35.371Z,3.30
2018-02-19T17:20:03.643Z,3.30
2018-02-19T17:22:31.946Z,3.30
2018-02-19T17:25:00.219Z,3.30
2018-02-19T17:27:28.508Z,3.30
2018-02-19T17:29:56.773Z,3.30
2018-02-19T17:32:25.077Z,3.20
2018-02-19T17:34:55.049Z,3.20
2018-02-19T17:37:23.347Z,3.20
2018-02-19T17:39:51.626Z,3.20
2018-02-19T17:42:19.910Z,3.20
2018-02-19T17:44:48.195Z,3.20
2018-02-19T17:47:16.509Z,3.20
2018-02-19T17:49:44.774Z,3.20
2018-02-19T17:52:13.042Z,3.20
2018-02-19T17:54:41.349Z,3.10
2018-02-19T17:57:09.617Z,3.10
2018-02-19T17:59:37.902Z,3.10
2018-02-19T18:02:05.968Z,3.10
2018-02-19T18:04:34.248Z,3.10
2018-02-19T18:07:02.520Z,3.10
2018-02-19T18:09:30.790Z,3.10
2018-02-19T18:11:59.067Z,3.10
2018-02-19T18:14:27.341Z,3.10
2018-02-19T18:16:55.630Z,3.10
2018-02-19T18:19:23.992Z,3.00
2018-02-19T18:21:52.274Z,3.00
2018-02-19T18:24:20.554Z,3.00
2018-02-19T18:26:48.836Z,3.00
2018-02-19T18:29:17.113Z,3.00
2018-02-19T18:31:45.381Z,3.00
2018-02-19T18:34:13.707Z,3.00
2018-02-19T18:36:42.177Z,3.10
2018-02-19T18:39:10.502Z,3.10
2018-02-19T18:41:38.774Z,3.00
2018-02-19T18:44:07.060Z,3.10
2018-02-19T18:46:35.343Z,3.00
2018-02-19T18:49:03.619Z,3.00
2018-02-19T18:51:31.724Z,3.00
2018-02-19T18:54:00.057Z,3.10
2018-02-19T18:56:28.372Z,3.10
2018-02-19T18:58:57.593Z,3.10
2018-02-19T19:01:26.056Z,3.10
2018-02-19T19:03:54.338Z,3.10
2018-02-19T19:06:22.624Z,3.10
2018-02-19T19:09:02.083Z,3.10
2018-02-19T19:11:30.384Z,3.10
2018-02-19T19:13:58.678Z,3.10
2018-02-19T19:16:26.942Z,3.10
2018-02-19T19:18:55.230Z,3.10
2018-02-19T19:21:23.514Z,3.10
2018-02-19T19:23:52.761Z,3.10
2018-02-19T19:26:21.173Z,3.10
2018-02-19T19:28:50.216Z,3.10
2018-02-19T19:31:18.488Z,3.10
2018-02-19T19:33:47.127Z,3.10
2018-02-19T19:36:15.586Z,3.10
2018-02-19T19:41:42.859Z,3.10
2018-02-19T19:44:11.240Z,3.10
2018-02-19T19:46:39.544Z,3.10
2018-02-19T19:49:07.844Z,3.10
2018-02-19T19:51:36.141Z,3.10
2018-02-19T19:54:04.441Z,3.10
2018-02-19T19:56:32.724Z,3.20
2018-02-19T19:59:01.686Z,3.10
2018-02-19T20:01:30.757Z,3.10
2018-02-19T20:03:59.062Z,3.10
2018-02-19T20:06:27.376Z,3.20
2018-02-19T20:08:55.560Z,3.10
2018-02-19T20:11:23.884Z,3.20
2018-02-19T20:13:52.222Z,3.20
2018-02-19T20:16:20.706Z,3.10
2018-02-19T20:18:49.032Z,3.10
2018-02-19T20:21:17.391Z,3.10
2018-02-19T20:23:45.660Z,3.10
2018-02-19T20:26:13.970Z,3.10
2018-02-19T20:28:42.317Z,3.10
2018-02-19T20:31:10.612Z,3.10
2018-02-19T20:33:38.951Z,3.10
2018-02-19T20:36:07.253Z,3.10
2018-02-19T20:38:35.529Z,3.10
2018-02-19T20:41:03.836Z,3.10
2018-02-19T20:43:32.119Z,3.10
2018-02-19T20:46:00.415Z,3.10
2018-02-19T20:48:28.693Z,3.10
2018-02-19T20:50:56.969Z,3.10
2018-02-19T20:53:25.252Z,3.10
2018-02-19T20:55:53.530Z,3.10
2018-02-19T20:58:21.807Z,3.10
2018-02-19T21:00:50.065Z,3.00
2018-02-19T21:03:18.391Z,3.00
2018-02-19T21:05:46.712Z,3.00
2018-02-19T21:08:15.020Z,3.00
2018-02-19T21:10:43.294Z,3.00
2018-02-19T21:13:11.590Z,3.00
2018-02-19T21:15:41.634Z,3.00
2018-02-19T21:18:09.953Z,3.00
2018-02-19T21:20:38.265Z,3.00
2018-02-19T21:23:06.925Z,3.00
2018-02-19T21:25:35.965Z,2.90
2018-02-19T21:28:04.802Z,2.90
2018-02-19T21:30:33.115Z,2.90
2018-02-19T21:33:01.410Z,2.90
2018-02-19T21:35:29.153Z,2.90
2018-02-19T21:37:57.408Z,2.90
2018-02-19T21:40:25.755Z,2.80
2018-02-19T21:42:54.043Z,2.90
2018-02-19T21:45:22.400Z,2.90
2018-02-19T21:47:50.759Z,2.90
2018-02-19T21:50:19.050Z,2.90
2018-02-19T21:52:47.337Z,2.90
2018-02-19T21:55:15.606Z,2.80
2018-02-19T21:57:44.196Z,2.70
2018-02-19T22:00:12.459Z,2.60
2018-02-19T22:02:42.117Z,2.50
2018-02-19T22:05:11.596Z,2.40
2018-02-19T22:07:40.436Z,2.30
2018-02-19T22:10:09.406Z,2.40
2018-02-19T22:12:37.720Z,2.30
2018-02-19T22:15:06.553Z,2.30
2018-02-19T22:17:36.446Z,2.20
2018-02-19T22:20:04.948Z,2.20
2018-02-19T22:22:34.441Z,2.20
2018-02-19T22:25:02.992Z,2.10
2018-02-19T22:27:31.750Z,2.10
2018-02-19T22:30:00.805Z,2.00
2018-02-19T22:32:29.409Z,1.90
2018-02-19T22:34:58.429Z,1.90
2018-02-19T22:37:27.863Z,1.90
2018-02-19T22:39:56.460Z,1.80
2018-02-19T22:42:25.253Z,1.80
2018-02-19T22:44:54.146Z,1.80
2018-02-19T22:47:22.682Z,1.70
2018-02-19T22:49:50.960Z,1.70
2018-02-19T22:52:19.543Z,1.60
2018-02-19T22:54:47.807Z,1.50
2018-02-19T22:57:16.199Z,1.40
2018-02-19T22:59:46.611Z,1.40
2018-02-19T23:02:15.827Z,1.40
2018-02-19T23:04:45.126Z,1.30
2018-02-19T23:07:13.414Z,1.30
2018-02-19T23:09:42.970Z,1.20
2018-02-19T23:12:12.513Z,1.20
2018-02-19T23:14:42.768Z,1.00
2018-02-19T23:17:11.069Z,1.00
2018-02-19T23:19:39.570Z,0.90
2018-02-19T23:22:08.310Z,0.70
2018-02-19T23:24:36.591Z,0.60
2018-02-19T23:27:04.749Z,0.50
2018-02-19T23:29:34.208Z,0.40
2018-02-19T23:32:04.117Z,0.20
2018-02-19T23:34:32.851Z,0.20
2018-02-19T23:37:01.640Z,0.30
2018-02-19T23:39:30.563Z,0.30
2018-02-19T23:41:59.116Z,0.30
2018-02-19T23:44:28.309Z,0.20
2018-02-19T23:46:56.871Z,0.10
2018-02-19T23:49:26.135Z,0.00
2018-02-19T23:51:55.803Z,0.00
2018-02-19T23:54:24.503Z,-0.20
2018-02-19T23:56:53.050Z,-0.20
2018-02-19T23:59:21.728Z,-0.30
